sensor_id;sensor_type;location;lat;lon;timestamp;temperature;humidity
11836;DHT22;5977;51.972;7.640;2022-11-11T00:01:43;18.50;81.20
11836;DHT22;5977;51.972;7.640;2022-11-11T00:04:29;18.50;80.50
11836;DHT22;5977;51.972;7.640;2022-11-11T00:07:17;18.40;80.40
11836;DHT22;5977;51.972;7.640;2022-11-11T00:10:05;18.30;80.70
11836;DHT22;5977;51.972;7.640;2022-11-11T00:12:51;18.40;81.30
11836;DHT22;5977;51.972;7.640;2022-11-11T00:15:38;18.40;81.20
11836;DHT22;5977;51.972;7.640;2022-11-11T00:18:24;18.20;80.30
11836;DHT22;5977;51.972;7.640;2022-11-11T00:21:29;18.30;80.80
11836;DHT22;5977;51.972;7.640;2022-11-11T00:24:34;18.40;80.20
11836;DHT22;5977;51.972;7.640;2022-11-11T00:27:39;18.20;80.60
11836;DHT22;5977;51.972;7.640;2022-11-11T00:30:25;18.30;80.50
11836;DHT22;5977;51.972;7.640;2022-11-11T00:33:11;18.30;81.10
11836;DHT22;5977;51.972;7.640;2022-11-11T00:35:58;18.30;80.40
11836;DHT22;5977;51.972;7.640;2022-11-11T00:38:45;18.40;80.60
11836;DHT22;5977;51.972;7.640;2022-11-11T00:41:33;18.30;80.20
11836;DHT22;5977;51.972;7.640;2022-11-11T00:44:19;18.40;80.70
11836;DHT22;5977;51.972;7.640;2022-11-11T00:47:07;18.30;80.60
11836;DHT22;5977;51.972;7.640;2022-11-11T00:50:19;18.50;80.50
11836;DHT22;5977;51.972;7.640;2022-11-11T00:53:26;18.30;80.20
11836;DHT22;5977;51.972;7.640;2022-11-11T00:56:13;18.20;79.90
11836;DHT22;5977;51.972;7.640;2022-11-11T00:59:00;18.20;80.80
11836;DHT22;5977;51.972;7.640;2022-11-11T01:01:47;18.30;80.60
11836;DHT22;5977;51.972;7.640;2022-11-11T01:04:34;18.20;80.90
11836;DHT22;5977;51.972;7.640;2022-11-11T01:07:20;18.30;80.60
11836;DHT22;5977;51.972;7.640;2022-11-11T01:10:07;18.40;80.30
11836;DHT22;5977;51.972;7.640;2022-11-11T01:12:55;18.30;79.90
11836;DHT22;5977;51.972;7.640;2022-11-11T01:16:00;18.40;80.00
11836;DHT22;5977;51.972;7.640;2022-11-11T01:18:48;18.30;79.90
11836;DHT22;5977;51.972;7.640;2022-11-11T01:21:34;18.20;79.70
11836;DHT22;5977;51.972;7.640;2022-11-11T01:24:21;18.20;79.80
11836;DHT22;5977;51.972;7.640;2022-11-11T01:27:07;18.30;80.30
11836;DHT22;5977;51.972;7.640;2022-11-11T01:29:53;18.30;80.30
11836;DHT22;5977;51.972;7.640;2022-11-11T01:32:41;18.30;80.60
11836;DHT22;5977;51.972;7.640;2022-11-11T01:35:28;18.20;79.60
11836;DHT22;5977;51.972;7.640;2022-11-11T01:38:14;18.20;80.20
11836;DHT22;5977;51.972;7.640;2022-11-11T01:41:02;18.20;80.10
11836;DHT22;5977;51.972;7.640;2022-11-11T01:44:19;18.20;80.10
11836;DHT22;5977;51.972;7.640;2022-11-11T01:47:06;18.30;79.70
11836;DHT22;5977;51.972;7.640;2022-11-11T01:49:57;18.10;80.10
11836;DHT22;5977;51.972;7.640;2022-11-11T01:52:45;18.20;80.20
11836;DHT22;5977;51.972;7.640;2022-11-11T01:55:32;18.20;80.60
11836;DHT22;5977;51.972;7.640;2022-11-11T01:58:19;18.10;80.90
11836;DHT22;5977;51.972;7.640;2022-11-11T02:01:06;17.90;80.60
11836;DHT22;5977;51.972;7.640;2022-11-11T02:03:53;17.90;80.90
11836;DHT22;5977;51.972;7.640;2022-11-11T02:07:05;18.00;80.90
11836;DHT22;5977;51.972;7.640;2022-11-11T02:09:53;17.90;80.80
11836;DHT22;5977;51.972;7.640;2022-11-11T02:12:41;18.00;81.20
11836;DHT22;5977;51.972;7.640;2022-11-11T02:15:45;18.00;80.90
11836;DHT22;5977;51.972;7.640;2022-11-11T02:18:32;18.00;81.40
11836;DHT22;5977;51.972;7.640;2022-11-11T02:21:24;18.00;80.60
11836;DHT22;5977;51.972;7.640;2022-11-11T02:24:16;18.10;80.80
11836;DHT22;5977;51.972;7.640;2022-11-11T02:27:05;18.00;80.00
11836;DHT22;5977;51.972;7.640;2022-11-11T02:29:55;17.90;81.00
11836;DHT22;5977;51.972;7.640;2022-11-11T02:32:47;17.90;80.30
11836;DHT22;5977;51.972;7.640;2022-11-11T02:35:36;17.90;81.40
11836;DHT22;5977;51.972;7.640;2022-11-11T02:38:24;18.10;80.40
11836;DHT22;5977;51.972;7.640;2022-11-11T02:41:12;18.10;81.10
11836;DHT22;5977;51.972;7.640;2022-11-11T02:44:16;18.10;81.10
11836;DHT22;5977;51.972;7.640;2022-11-11T02:47:03;18.00;81.60
11836;DHT22;5977;51.972;7.640;2022-11-11T02:49:49;17.80;81.10
11836;DHT22;5977;51.972;7.640;2022-11-11T02:52:36;17.90;81.20
11836;DHT22;5977;51.972;7.640;2022-11-11T02:55:23;18.00;81.50
11836;DHT22;5977;51.972;7.640;2022-11-11T02:58:11;18.00;81.20
11836;DHT22;5977;51.972;7.640;2022-11-11T03:00:58;18.00;81.20
11836;DHT22;5977;51.972;7.640;2022-11-11T03:03:45;18.00;81.30
11836;DHT22;5977;51.972;7.640;2022-11-11T03:06:31;18.00;80.60
11836;DHT22;5977;51.972;7.640;2022-11-11T03:09:17;17.90;80.40
11836;DHT22;5977;51.972;7.640;2022-11-11T03:12:04;17.80;80.90
11836;DHT22;5977;51.972;7.640;2022-11-11T03:14:52;17.90;81.20
11836;DHT22;5977;51.972;7.640;2022-11-11T03:17:39;17.90;80.20
11836;DHT22;5977;51.972;7.640;2022-11-11T03:20:25;17.90;81.30
11836;DHT22;5977;51.972;7.640;2022-11-11T03:23:30;17.90;80.90
11836;DHT22;5977;51.972;7.640;2022-11-11T03:26:16;18.00;80.90
11836;DHT22;5977;51.972;7.640;2022-11-11T03:29:04;18.00;80.90
11836;DHT22;5977;51.972;7.640;2022-11-11T03:31:51;18.00;80.80
11836;DHT22;5977;51.972;7.640;2022-11-11T03:34:37;18.00;80.70
11836;DHT22;5977;51.972;7.640;2022-11-11T03:37:24;18.00;80.00
11836;DHT22;5977;51.972;7.640;2022-11-11T03:40:28;17.90;81.00
11836;DHT22;5977;51.972;7.640;2022-11-11T03:43:16;18.00;80.40
11836;DHT22;5977;51.972;7.640;2022-11-11T03:46:04;18.00;80.70
11836;DHT22;5977;51.972;7.640;2022-11-11T03:48:52;17.90;81.00
11836;DHT22;5977;51.972;7.640;2022-11-11T03:51:38;18.10;81.20
11836;DHT22;5977;51.972;7.640;2022-11-11T03:54:24;18.10;80.70
11836;DHT22;5977;51.972;7.640;2022-11-11T03:57:11;18.10;81.40
11836;DHT22;5977;51.972;7.640;2022-11-11T04:00:19;18.00;81.10
11836;DHT22;5977;51.972;7.640;2022-11-11T04:03:07;18.00;80.40
11836;DHT22;5977;51.972;7.640;2022-11-11T04:06:12;18.00;81.60
11836;DHT22;5977;51.972;7.640;2022-11-11T04:09:16;18.10;80.80
11836;DHT22;5977;51.972;7.640;2022-11-11T04:12:21;18.10;80.70
11836;DHT22;5977;51.972;7.640;2022-11-11T04:15:08;17.90;81.50
11836;DHT22;5977;51.972;7.640;2022-11-11T04:18:12;17.90;80.40
11836;DHT22;5977;51.972;7.640;2022-11-11T04:20:59;18.10;81.00
11836;DHT22;5977;51.972;7.640;2022-11-11T04:24:05;18.00;81.30
11836;DHT22;5977;51.972;7.640;2022-11-11T04:27:07;18.00;81.00
11836;DHT22;5977;51.972;7.640;2022-11-11T04:29:54;18.10;80.30
11836;DHT22;5977;51.972;7.640;2022-11-11T04:32:39;18.10;81.10
11836;DHT22;5977;51.972;7.640;2022-11-11T04:35:27;18.20;81.30
11836;DHT22;5977;51.972;7.640;2022-11-11T04:38:14;18.40;81.00
11836;DHT22;5977;51.972;7.640;2022-11-11T04:41:19;18.20;79.80
11836;DHT22;5977;51.972;7.640;2022-11-11T04:44:05;18.20;80.90
11836;DHT22;5977;51.972;7.640;2022-11-11T04:47:10;18.10;81.20
11836;DHT22;5977;51.972;7.640;2022-11-11T04:49:56;18.10;81.50
11836;DHT22;5977;51.972;7.640;2022-11-11T04:52:50;18.20;81.10
11836;DHT22;5977;51.972;7.640;2022-11-11T04:55:37;18.30;81.20
11836;DHT22;5977;51.972;7.640;2022-11-11T04:58:42;18.30;81.80
11836;DHT22;5977;51.972;7.640;2022-11-11T05:01:29;18.30;79.20
11836;DHT22;5977;51.972;7.640;2022-11-11T05:04:32;18.20;79.60
11836;DHT22;5977;51.972;7.640;2022-11-11T05:07:19;18.30;79.70
11836;DHT22;5977;51.972;7.640;2022-11-11T05:10:23;18.40;79.60
11836;DHT22;5977;51.972;7.640;2022-11-11T05:13:09;18.30;79.70
11836;DHT22;5977;51.972;7.640;2022-11-11T05:16:20;18.30;80.90
11836;DHT22;5977;51.972;7.640;2022-11-11T05:19:25;18.30;80.10
11836;DHT22;5977;51.972;7.640;2022-11-11T05:22:31;18.60;80.20
11836;DHT22;5977;51.972;7.640;2022-11-11T05:25:17;18.50;80.20
11836;DHT22;5977;51.972;7.640;2022-11-11T05:28:14;18.60;79.60
11836;DHT22;5977;51.972;7.640;2022-11-11T05:31:00;18.60;80.70
11836;DHT22;5977;51.972;7.640;2022-11-11T05:33:48;18.60;80.10
11836;DHT22;5977;51.972;7.640;2022-11-11T05:36:35;18.60;80.40
11836;DHT22;5977;51.972;7.640;2022-11-11T05:39:21;18.60;79.70
11836;DHT22;5977;51.972;7.640;2022-11-11T05:42:08;18.50;79.80
11836;DHT22;5977;51.972;7.640;2022-11-11T05:44:54;18.10;78.40
11836;DHT22;5977;51.972;7.640;2022-11-11T05:47:41;18.30;79.10
11836;DHT22;5977;51.972;7.640;2022-11-11T05:50:28;18.50;79.00
11836;DHT22;5977;51.972;7.640;2022-11-11T05:53:15;18.50;79.00
11836;DHT22;5977;51.972;7.640;2022-11-11T05:56:01;18.60;79.00
11836;DHT22;5977;51.972;7.640;2022-11-11T05:58:47;18.70;79.50
11836;DHT22;5977;51.972;7.640;2022-11-11T06:01:35;18.70;80.00
11836;DHT22;5977;51.972;7.640;2022-11-11T06:04:22;18.70;79.50
11836;DHT22;5977;51.972;7.640;2022-11-11T06:07:10;18.70;79.10
11836;DHT22;5977;51.972;7.640;2022-11-11T06:09:56;18.80;79.30
11836;DHT22;5977;51.972;7.640;2022-11-11T06:13:03;18.70;78.90
11836;DHT22;5977;51.972;7.640;2022-11-11T06:15:55;18.70;79.50
11836;DHT22;5977;51.972;7.640;2022-11-11T06:18:42;18.70;79.20
11836;DHT22;5977;51.972;7.640;2022-11-11T06:21:28;18.70;79.90
11836;DHT22;5977;51.972;7.640;2022-11-11T06:24:16;18.80;79.30
11836;DHT22;5977;51.972;7.640;2022-11-11T06:27:09;18.70;79.50
11836;DHT22;5977;51.972;7.640;2022-11-11T06:29:55;18.60;80.10
11836;DHT22;5977;51.972;7.640;2022-11-11T06:33:02;18.70;81.50
11836;DHT22;5977;51.972;7.640;2022-11-11T06:35:49;18.70;80.30
11836;DHT22;5977;51.972;7.640;2022-11-11T06:38:35;19.00;80.10
11836;DHT22;5977;51.972;7.640;2022-11-11T06:41:23;18.80;79.70
11836;DHT22;5977;51.972;7.640;2022-11-11T06:44:09;18.80;79.60
11836;DHT22;5977;51.972;7.640;2022-11-11T06:46:56;18.60;79.80
11836;DHT22;5977;51.972;7.640;2022-11-11T06:49:42;18.80;80.40
11836;DHT22;5977;51.972;7.640;2022-11-11T06:52:29;18.80;79.90
11836;DHT22;5977;51.972;7.640;2022-11-11T06:55:15;18.60;80.00
11836;DHT22;5977;51.972;7.640;2022-11-11T06:58:07;18.60;80.50
11836;DHT22;5977;51.972;7.640;2022-11-11T07:00:54;18.60;80.90
11836;DHT22;5977;51.972;7.640;2022-11-11T07:03:40;18.60;80.10
11836;DHT22;5977;51.972;7.640;2022-11-11T07:06:27;18.60;80.60
11836;DHT22;5977;51.972;7.640;2022-11-11T07:09:13;18.60;79.80
11836;DHT22;5977;51.972;7.640;2022-11-11T07:12:00;18.70;80.20
11836;DHT22;5977;51.972;7.640;2022-11-11T07:14:47;18.60;79.80
11836;DHT22;5977;51.972;7.640;2022-11-11T07:17:34;18.80;80.70
11836;DHT22;5977;51.972;7.640;2022-11-11T07:20:20;18.70;81.10
11836;DHT22;5977;51.972;7.640;2022-11-11T07:23:06;18.70;81.40
11836;DHT22;5977;51.972;7.640;2022-11-11T07:25:53;18.10;79.50
11836;DHT22;5977;51.972;7.640;2022-11-11T07:28:39;17.70;80.40
11836;DHT22;5977;51.972;7.640;2022-11-11T07:31:27;17.50;81.00
11836;DHT22;5977;51.972;7.640;2022-11-11T07:34:14;17.50;81.00
11836;DHT22;5977;51.972;7.640;2022-11-11T07:37:00;17.40;81.00
11836;DHT22;5977;51.972;7.640;2022-11-11T07:39:47;17.30;80.50
11836;DHT22;5977;51.972;7.640;2022-11-11T07:42:34;17.30;80.70
11836;DHT22;5977;51.972;7.640;2022-11-11T07:45:21;17.20;80.10
11836;DHT22;5977;51.972;7.640;2022-11-11T07:48:09;16.90;80.50
11836;DHT22;5977;51.972;7.640;2022-11-11T07:50:55;17.00;80.40
11836;DHT22;5977;51.972;7.640;2022-11-11T07:53:41;17.00;80.30
11836;DHT22;5977;51.972;7.640;2022-11-11T07:56:28;17.00;80.70
11836;DHT22;5977;51.972;7.640;2022-11-11T07:59:14;17.10;81.30
11836;DHT22;5977;51.972;7.640;2022-11-11T08:02:00;17.10;80.70
11836;DHT22;5977;51.972;7.640;2022-11-11T08:04:48;17.00;80.60
11836;DHT22;5977;51.972;7.640;2022-11-11T08:07:40;17.00;80.50
11836;DHT22;5977;51.972;7.640;2022-11-11T08:10:27;17.00;79.90
11836;DHT22;5977;51.972;7.640;2022-11-11T08:13:13;17.20;80.00
11836;DHT22;5977;51.972;7.640;2022-11-11T08:16:17;17.30;80.20
11836;DHT22;5977;51.972;7.640;2022-11-11T08:19:04;17.40;80.00
11836;DHT22;5977;51.972;7.640;2022-11-11T08:21:52;17.40;79.80
11836;DHT22;5977;51.972;7.640;2022-11-11T08:24:38;17.50;79.40
11836;DHT22;5977;51.972;7.640;2022-11-11T08:27:45;17.50;79.70
11836;DHT22;5977;51.972;7.640;2022-11-11T08:30:31;17.50;79.90
11836;DHT22;5977;51.972;7.640;2022-11-11T08:33:18;17.70;79.20
11836;DHT22;5977;51.972;7.640;2022-11-11T08:36:17;17.50;79.10
11836;DHT22;5977;51.972;7.640;2022-11-11T08:39:07;17.60;79.00
11836;DHT22;5977;51.972;7.640;2022-11-11T08:41:53;17.70;78.30
11836;DHT22;5977;51.972;7.640;2022-11-11T08:44:40;17.70;78.90
11836;DHT22;5977;51.972;7.640;2022-11-11T08:47:26;17.80;78.70
11836;DHT22;5977;51.972;7.640;2022-11-11T08:50:13;17.80;78.30
11836;DHT22;5977;51.972;7.640;2022-11-11T08:52:59;17.80;78.30
11836;DHT22;5977;51.972;7.640;2022-11-11T08:55:46;17.90;78.90
11836;DHT22;5977;51.972;7.640;2022-11-11T08:58:33;17.80;77.40
11836;DHT22;5977;51.972;7.640;2022-11-11T09:01:19;17.80;78.00
11836;DHT22;5977;51.972;7.640;2022-11-11T09:04:06;17.70;77.00
11836;DHT22;5977;51.972;7.640;2022-11-11T09:07:12;17.50;77.50
11836;DHT22;5977;51.972;7.640;2022-11-11T09:09:58;17.50;78.20
11836;DHT22;5977;51.972;7.640;2022-11-11T09:12:46;17.40;78.40
11836;DHT22;5977;51.972;7.640;2022-11-11T09:15:33;17.30;77.80
11836;DHT22;5977;51.972;7.640;2022-11-11T09:18:19;17.20;77.80
11836;DHT22;5977;51.972;7.640;2022-11-11T09:21:05;17.30;79.70
11836;DHT22;5977;51.972;7.640;2022-11-11T09:23:52;17.40;79.90
11836;DHT22;5977;51.972;7.640;2022-11-11T09:26:38;17.30;79.60
11836;DHT22;5977;51.972;7.640;2022-11-11T09:29:26;17.40;81.10
11836;DHT22;5977;51.972;7.640;2022-11-11T09:32:12;17.50;80.40
11836;DHT22;5977;51.972;7.640;2022-11-11T09:34:59;17.50;79.90
11836;DHT22;5977;51.972;7.640;2022-11-11T09:37:53;17.70;79.80
11836;DHT22;5977;51.972;7.640;2022-11-11T09:40:51;17.70;77.60
11836;DHT22;5977;51.972;7.640;2022-11-11T09:43:46;17.90;77.90
11836;DHT22;5977;51.972;7.640;2022-11-11T09:46:42;17.80;77.20
11836;DHT22;5977;51.972;7.640;2022-11-11T09:49:40;17.90;78.10
11836;DHT22;5977;51.972;7.640;2022-11-11T09:52:30;17.70;77.50
11836;DHT22;5977;51.972;7.640;2022-11-11T09:55:21;17.60;77.00
11836;DHT22;5977;51.972;7.640;2022-11-11T09:58:12;17.50;78.10
11836;DHT22;5977;51.972;7.640;2022-11-11T10:01:04;17.80;77.90
11836;DHT22;5977;51.972;7.640;2022-11-11T10:03:59;17.90;79.10
11836;DHT22;5977;51.972;7.640;2022-11-11T10:06:56;18.00;78.70
11836;DHT22;5977;51.972;7.640;2022-11-11T10:09:50;18.00;79.30
11836;DHT22;5977;51.972;7.640;2022-11-11T10:12:41;18.00;78.10
11836;DHT22;5977;51.972;7.640;2022-11-11T10:15:35;17.90;79.80
11836;DHT22;5977;51.972;7.640;2022-11-11T10:18:37;18.10;79.20
11836;DHT22;5977;51.972;7.640;2022-11-11T10:21:33;18.00;78.10
11836;DHT22;5977;51.972;7.640;2022-11-11T10:24:47;17.80;78.00
11836;DHT22;5977;51.972;7.640;2022-11-11T10:27:38;18.00;78.70
11836;DHT22;5977;51.972;7.640;2022-11-11T10:30:27;17.90;81.30
11836;DHT22;5977;51.972;7.640;2022-11-11T10:33:18;18.10;79.20
11836;DHT22;5977;51.972;7.640;2022-11-11T10:36:12;18.10;79.20
11836;DHT22;5977;51.972;7.640;2022-11-11T10:39:03;18.10;78.80
11836;DHT22;5977;51.972;7.640;2022-11-11T10:41:50;17.90;78.70
11836;DHT22;5977;51.972;7.640;2022-11-11T10:44:37;17.90;79.10
11836;DHT22;5977;51.972;7.640;2022-11-11T10:47:32;17.80;77.80
11836;DHT22;5977;51.972;7.640;2022-11-11T10:50:23;17.80;77.30
11836;DHT22;5977;51.972;7.640;2022-11-11T10:53:16;17.90;77.30
11836;DHT22;5977;51.972;7.640;2022-11-11T10:56:12;18.00;76.70
11836;DHT22;5977;51.972;7.640;2022-11-11T10:59:07;18.10;76.60
11836;DHT22;5977;51.972;7.640;2022-11-11T11:01:58;18.10;76.30
11836;DHT22;5977;51.972;7.640;2022-11-11T11:04:48;18.00;75.60
11836;DHT22;5977;51.972;7.640;2022-11-11T11:07:40;18.00;75.40
11836;DHT22;5977;51.972;7.640;2022-11-11T11:10:33;17.90;75.60
11836;DHT22;5977;51.972;7.640;2022-11-11T11:13:27;18.00;74.60
11836;DHT22;5977;51.972;7.640;2022-11-11T11:16:18;18.00;75.30
11836;DHT22;5977;51.972;7.640;2022-11-11T11:19:19;18.00;75.20
11836;DHT22;5977;51.972;7.640;2022-11-11T11:22:06;18.00;74.40
11836;DHT22;5977;51.972;7.640;2022-11-11T11:25:08;17.90;75.40
11836;DHT22;5977;51.972;7.640;2022-11-11T11:28:06;18.00;75.70
11836;DHT22;5977;51.972;7.640;2022-11-11T11:31:00;18.10;75.20
11836;DHT22;5977;51.972;7.640;2022-11-11T11:33:53;18.20;75.10
11836;DHT22;5977;51.972;7.640;2022-11-11T11:36:39;18.20;74.90
11836;DHT22;5977;51.972;7.640;2022-11-11T11:39:34;18.00;75.10
11836;DHT22;5977;51.972;7.640;2022-11-11T11:42:32;18.10;74.30
11836;DHT22;5977;51.972;7.640;2022-11-11T11:45:21;18.10;74.50
11836;DHT22;5977;51.972;7.640;2022-11-11T11:48:21;18.20;74.40
11836;DHT22;5977;51.972;7.640;2022-11-11T11:51:26;18.20;74.10
11836;DHT22;5977;51.972;7.640;2022-11-11T11:54:28;18.20;74.50
11836;DHT22;5977;51.972;7.640;2022-11-11T11:57:27;18.20;74.30
11836;DHT22;5977;51.972;7.640;2022-11-11T12:00:18;18.20;74.60
11836;DHT22;5977;51.972;7.640;2022-11-11T12:03:18;18.20;76.10
11836;DHT22;5977;51.972;7.640;2022-11-11T12:06:16;18.10;75.40
11836;DHT22;5977;51.972;7.640;2022-11-11T12:09:11;18.20;75.70
11836;DHT22;5977;51.972;7.640;2022-11-11T12:12:04;18.20;74.90
11836;DHT22;5977;51.972;7.640;2022-11-11T12:15:03;18.30;79.90
11836;DHT22;5977;51.972;7.640;2022-11-11T12:17:58;18.30;79.10
11836;DHT22;5977;51.972;7.640;2022-11-11T12:20:53;18.40;79.10
11836;DHT22;5977;51.972;7.640;2022-11-11T12:23:49;18.30;79.10
11836;DHT22;5977;51.972;7.640;2022-11-11T12:26:43;18.50;79.60
11836;DHT22;5977;51.972;7.640;2022-11-11T12:29:42;18.40;79.50
11836;DHT22;5977;51.972;7.640;2022-11-11T12:32:44;18.40;79.00
11836;DHT22;5977;51.972;7.640;2022-11-11T12:35:51;18.60;78.70
11836;DHT22;5977;51.972;7.640;2022-11-11T12:38:51;18.50;76.80
11836;DHT22;5977;51.972;7.640;2022-11-11T12:41:55;18.50;77.50
11836;DHT22;5977;51.972;7.640;2022-11-11T12:44:50;18.60;77.50
11836;DHT22;5977;51.972;7.640;2022-11-11T12:47:45;18.50;77.00
11836;DHT22;5977;51.972;7.640;2022-11-11T12:50:38;18.70;77.30
11836;DHT22;5977;51.972;7.640;2022-11-11T12:53:33;18.60;77.00
11836;DHT22;5977;51.972;7.640;2022-11-11T12:56:27;18.70;76.80
11836;DHT22;5977;51.972;7.640;2022-11-11T12:59:24;18.70;75.40
11836;DHT22;5977;51.972;7.640;2022-11-11T13:02:28;18.70;75.20
11836;DHT22;5977;51.972;7.640;2022-11-11T13:05:20;18.70;76.10
11836;DHT22;5977;51.972;7.640;2022-11-11T13:11:34;18.70;75.20
11836;DHT22;5977;51.972;7.640;2022-11-11T13:14:40;18.70;75.20
11836;DHT22;5977;51.972;7.640;2022-11-11T13:17:30;18.70;76.10
11836;DHT22;5977;51.972;7.640;2022-11-11T13:20:24;18.80;76.40
11836;DHT22;5977;51.972;7.640;2022-11-11T13:23:14;18.80;76.50
11836;DHT22;5977;51.972;7.640;2022-11-11T13:26:03;18.70;77.40
11836;DHT22;5977;51.972;7.640;2022-11-11T13:28:57;18.80;77.10
11836;DHT22;5977;51.972;7.640;2022-11-11T13:31:46;18.80;76.40
11836;DHT22;5977;51.972;7.640;2022-11-11T13:34:34;18.80;76.90
11836;DHT22;5977;51.972;7.640;2022-11-11T13:37:25;18.90;76.00
11836;DHT22;5977;51.972;7.640;2022-11-11T13:40:31;18.80;76.30
11836;DHT22;5977;51.972;7.640;2022-11-11T13:43:21;18.80;75.90
11836;DHT22;5977;51.972;7.640;2022-11-11T13:46:32;18.80;75.50
11836;DHT22;5977;51.972;7.640;2022-11-11T13:49:23;18.70;75.40
11836;DHT22;5977;51.972;7.640;2022-11-11T13:52:19;18.70;75.50
11836;DHT22;5977;51.972;7.640;2022-11-11T13:55:24;18.70;75.30
11836;DHT22;5977;51.972;7.640;2022-11-11T13:58:21;18.80;75.70
11836;DHT22;5977;51.972;7.640;2022-11-11T14:01:10;18.80;75.50
11836;DHT22;5977;51.972;7.640;2022-11-11T14:04:00;18.80;75.80
11836;DHT22;5977;51.972;7.640;2022-11-11T14:06:54;18.90;75.40
11836;DHT22;5977;51.972;7.640;2022-11-11T14:09:58;18.80;75.00
11836;DHT22;5977;51.972;7.640;2022-11-11T14:12:48;18.80;74.90
11836;DHT22;5977;51.972;7.640;2022-11-11T14:15:40;18.80;75.40
11836;DHT22;5977;51.972;7.640;2022-11-11T14:18:42;18.70;75.40
11836;DHT22;5977;51.972;7.640;2022-11-11T14:21:46;18.70;74.30
11836;DHT22;5977;51.972;7.640;2022-11-11T14:24:37;18.80;74.60
11836;DHT22;5977;51.972;7.640;2022-11-11T14:27:26;18.70;75.00
11836;DHT22;5977;51.972;7.640;2022-11-11T14:30:36;18.80;74.40
11836;DHT22;5977;51.972;7.640;2022-11-11T14:33:33;18.80;73.80
11836;DHT22;5977;51.972;7.640;2022-11-11T14:36:27;18.70;73.20
11836;DHT22;5977;51.972;7.640;2022-11-11T14:39:29;18.70;73.80
11836;DHT22;5977;51.972;7.640;2022-11-11T14:42:43;18.70;73.70
11836;DHT22;5977;51.972;7.640;2022-11-11T14:46:00;18.60;72.70
11836;DHT22;5977;51.972;7.640;2022-11-11T14:48:59;18.60;72.70
11836;DHT22;5977;51.972;7.640;2022-11-11T14:51:51;18.70;72.50
11836;DHT22;5977;51.972;7.640;2022-11-11T14:54:52;18.70;72.70
11836;DHT22;5977;51.972;7.640;2022-11-11T14:57:41;18.60;73.50
11836;DHT22;5977;51.972;7.640;2022-11-11T15:00:32;18.60;73.50
11836;DHT22;5977;51.972;7.640;2022-11-11T15:03:26;18.50;73.30
11836;DHT22;5977;51.972;7.640;2022-11-11T15:06:17;18.50;73.60
11836;DHT22;5977;51.972;7.640;2022-11-11T15:09:18;18.50;73.70
11836;DHT22;5977;51.972;7.640;2022-11-11T15:12:15;18.50;74.00
11836;DHT22;5977;51.972;7.640;2022-11-11T15:15:10;18.40;74.50
11836;DHT22;5977;51.972;7.640;2022-11-11T15:18:07;18.60;74.90
11836;DHT22;5977;51.972;7.640;2022-11-11T15:21:04;18.50;74.50
11836;DHT22;5977;51.972;7.640;2022-11-11T15:24:01;18.50;74.20
11836;DHT22;5977;51.972;7.640;2022-11-11T15:26:56;18.50;73.90
11836;DHT22;5977;51.972;7.640;2022-11-11T15:30:04;18.40;73.60
11836;DHT22;5977;51.972;7.640;2022-11-11T15:33:01;18.40;73.20
11836;DHT22;5977;51.972;7.640;2022-11-11T15:35:54;18.40;73.50
11836;DHT22;5977;51.972;7.640;2022-11-11T15:38:43;18.20;73.80
11836;DHT22;5977;51.972;7.640;2022-11-11T15:41:35;18.20;74.20
11836;DHT22;5977;51.972;7.640;2022-11-11T15:44:23;18.10;73.80
11836;DHT22;5977;51.972;7.640;2022-11-11T15:47:14;18.10;74.20
11836;DHT22;5977;51.972;7.640;2022-11-11T15:50:01;18.10;74.20
11836;DHT22;5977;51.972;7.640;2022-11-11T15:52:53;18.20;75.30
11836;DHT22;5977;51.972;7.640;2022-11-11T15:55:40;18.10;76.00
11836;DHT22;5977;51.972;7.640;2022-11-11T15:58:28;18.10;76.00
11836;DHT22;5977;51.972;7.640;2022-11-11T16:01:15;18.10;75.70
11836;DHT22;5977;51.972;7.640;2022-11-11T16:04:07;18.10;76.10
11836;DHT22;5977;51.972;7.640;2022-11-11T16:07:17;18.00;75.60
11836;DHT22;5977;51.972;7.640;2022-11-11T16:10:07;18.10;76.10
11836;DHT22;5977;51.972;7.640;2022-11-11T16:12:56;18.10;76.50
11836;DHT22;5977;51.972;7.640;2022-11-11T16:15:46;18.10;76.50
11836;DHT22;5977;51.972;7.640;2022-11-11T16:18:39;18.00;76.50
11836;DHT22;5977;51.972;7.640;2022-11-11T16:21:31;18.00;76.20
11836;DHT22;5977;51.972;7.640;2022-11-11T16:24:22;18.00;76.40
11836;DHT22;5977;51.972;7.640;2022-11-11T16:27:13;17.90;76.60
11836;DHT22;5977;51.972;7.640;2022-11-11T16:30:15;18.00;76.60
11836;DHT22;5977;51.972;7.640;2022-11-11T16:33:02;18.30;77.20
11836;DHT22;5977;51.972;7.640;2022-11-11T16:35:49;18.50;77.20
11836;DHT22;5977;51.972;7.640;2022-11-11T16:38:37;18.60;76.70
11836;DHT22;5977;51.972;7.640;2022-11-11T16:41:28;18.60;77.10
11836;DHT22;5977;51.972;7.640;2022-11-11T16:44:32;18.70;76.70
11836;DHT22;5977;51.972;7.640;2022-11-11T16:47:44;18.60;76.50
11836;DHT22;5977;51.972;7.640;2022-11-11T16:50:32;18.60;76.50
11836;DHT22;5977;51.972;7.640;2022-11-11T16:53:25;18.70;77.10
11836;DHT22;5977;51.972;7.640;2022-11-11T16:56:20;18.80;76.50
11836;DHT22;5977;51.972;7.640;2022-11-11T16:59:11;18.90;76.20
11836;DHT22;5977;51.972;7.640;2022-11-11T17:01:59;19.00;75.90
11836;DHT22;5977;51.972;7.640;2022-11-11T17:04:46;19.10;77.40
11836;DHT22;5977;51.972;7.640;2022-11-11T17:07:35;18.90;75.60
11836;DHT22;5977;51.972;7.640;2022-11-11T17:10:22;19.00;75.50
11836;DHT22;5977;51.972;7.640;2022-11-11T17:13:12;19.10;75.50
11836;DHT22;5977;51.972;7.640;2022-11-11T17:16:00;19.00;75.20
11836;DHT22;5977;51.972;7.640;2022-11-11T17:18:48;19.10;75.70
11836;DHT22;5977;51.972;7.640;2022-11-11T17:21:35;19.10;75.70
11836;DHT22;5977;51.972;7.640;2022-11-11T17:24:21;19.10;75.50
11836;DHT22;5977;51.972;7.640;2022-11-11T17:27:08;19.10;75.80
11836;DHT22;5977;51.972;7.640;2022-11-11T17:29:56;19.10;75.90
11836;DHT22;5977;51.972;7.640;2022-11-11T17:32:42;19.10;75.80
11836;DHT22;5977;51.972;7.640;2022-11-11T17:35:29;19.10;76.50
11836;DHT22;5977;51.972;7.640;2022-11-11T17:38:15;19.10;76.30
11836;DHT22;5977;51.972;7.640;2022-11-11T17:41:02;19.10;76.20
11836;DHT22;5977;51.972;7.640;2022-11-11T17:43:48;19.10;76.40
11836;DHT22;5977;51.972;7.640;2022-11-11T17:46:36;19.10;76.40
11836;DHT22;5977;51.972;7.640;2022-11-11T17:49:22;19.10;75.80
11836;DHT22;5977;51.972;7.640;2022-11-11T17:52:28;18.90;77.40
11836;DHT22;5977;51.972;7.640;2022-11-11T17:55:15;18.80;78.20
11836;DHT22;5977;51.972;7.640;2022-11-11T17:58:02;18.60;78.10
11836;DHT22;5977;51.972;7.640;2022-11-11T18:00:49;18.60;78.50
11836;DHT22;5977;51.972;7.640;2022-11-11T18:03:37;18.70;78.50
11836;DHT22;5977;51.972;7.640;2022-11-11T18:06:23;18.70;78.70
11836;DHT22;5977;51.972;7.640;2022-11-11T18:09:11;18.70;78.90
11836;DHT22;5977;51.972;7.640;2022-11-11T18:11:57;18.60;79.10
11836;DHT22;5977;51.972;7.640;2022-11-11T18:14:44;18.50;79.20
11836;DHT22;5977;51.972;7.640;2022-11-11T18:17:30;18.40;79.20
11836;DHT22;5977;51.972;7.640;2022-11-11T18:20:18;18.60;78.70
11836;DHT22;5977;51.972;7.640;2022-11-11T18:23:04;18.50;78.30
11836;DHT22;5977;51.972;7.640;2022-11-11T18:25:53;18.60;78.70